sensor_id;sensor_type;location;lat;lon;timestamp;P1;durP1;ratioP1;P2;durP2;ratioP2
77012;SDS011;65946;53.130;17.982;2023-01-16T00:01:26;4.70;;;1.20;;
77012;SDS011;65946;53.130;17.982;2023-01-16T00:03:53;3.90;;;1.10;;
77012;SDS011;65946;53.130;17.982;2023-01-16T00:06:21;3.60;;;0.90;;
77012;SDS011;65946;53.130;17.982;2023-01-16T00:08:47;2.10;;;0.80;;
77012;SDS011;65946;53.130;17.982;2023-01-16T00:11:15;3.10;;;0.80;;
77012;SDS011;65946;53.130;17.982;2023-01-16T00:13:42;1.80;;;0.80;;
77012;SDS011;65946;53.130;17.982;2023-01-16T00:16:09;3.70;;;0.80;;
77012;SDS011;65946;53.130;17.982;2023-01-16T00:21:02;5.50;;;1.40;;
77012;SDS011;65946;53.130;17.982;2023-01-16T00:23:29;2.80;;;0.90;;
77012;SDS011;65946;53.130;17.982;2023-01-16T00:25:56;2.20;;;0.70;;
77012;SDS011;65946;53.130;17.982;2023-01-16T00:30:49;3.40;;;0.90;;
77012;SDS011;65946;53.130;17.982;2023-01-16T00:33:16;3.60;;;1.00;;
77012;SDS011;65946;53.130;17.982;2023-01-16T00:35:45;3.40;;;0.90;;
77012;SDS011;65946;53.130;17.982;2023-01-16T00:38:12;2.40;;;0.80;;
77012;SDS011;65946;53.130;17.982;2023-01-16T00:43:06;3.00;;;1.00;;
77012;SDS011;65946;53.130;17.982;2023-01-16T00:45:33;2.30;;;1.00;;
77012;SDS011;65946;53.130;17.982;2023-01-16T00:48:00;3.50;;;0.90;;
77012;SDS011;65946;53.130;17.982;2023-01-16T00:50:27;2.40;;;0.80;;
77012;SDS011;65946;53.130;17.982;2023-01-16T00:52:53;4.10;;;1.10;;
77012;SDS011;65946;53.130;17.982;2023-01-16T00:57:47;3.40;;;0.90;;
77012;SDS011;65946;53.130;17.982;2023-01-16T01:00:15;1.80;;;0.70;;
77012;SDS011;65946;53.130;17.982;2023-01-16T01:02:44;4.00;;;1.00;;
77012;SDS011;65946;53.130;17.982;2023-01-16T01:05:10;2.00;;;0.70;;
77012;SDS011;65946;53.130;17.982;2023-01-16T01:07:37;2.50;;;0.80;;
77012;SDS011;65946;53.130;17.982;2023-01-16T01:10:04;3.00;;;0.90;;
77012;SDS011;65946;53.130;17.982;2023-01-16T01:12:31;3.00;;;1.00;;
77012;SDS011;65946;53.130;17.982;2023-01-16T01:14:58;4.70;;;1.10;;
77012;SDS011;65946;53.130;17.982;2023-01-16T01:17:25;3.70;;;1.00;;
77012;SDS011;65946;53.130;17.982;2023-01-16T01:19:51;3.20;;;1.00;;
77012;SDS011;65946;53.130;17.982;2023-01-16T01:22:18;3.10;;;1.10;;
77012;SDS011;65946;53.130;17.982;2023-01-16T01:24:48;4.30;;;1.40;;
77012;SDS011;65946;53.130;17.982;2023-01-16T01:27:16;4.10;;;1.20;;
77012;SDS011;65946;53.130;17.982;2023-01-16T01:29:43;4.50;;;1.20;;
77012;SDS011;65946;53.130;17.982;2023-01-16T01:34:36;3.90;;;0.80;;
77012;SDS011;65946;53.130;17.982;2023-01-16T01:37:04;2.40;;;1.00;;
77012;SDS011;65946;53.130;17.982;2023-01-16T01:39:32;2.40;;;1.00;;
77012;SDS011;65946;53.130;17.982;2023-01-16T01:42:00;3.30;;;0.90;;
77012;SDS011;65946;53.130;17.982;2023-01-16T01:47:45;4.20;;;1.30;;
77012;SDS011;65946;53.130;17.982;2023-01-16T01:53:26;4.30;;;0.80;;
77012;SDS011;65946;53.130;17.982;2023-01-16T01:55:58;1.80;;;0.60;;
77012;SDS011;65946;53.130;17.982;2023-01-16T01:58:30;2.80;;;1.00;;
77012;SDS011;65946;53.130;17.982;2023-01-16T02:00:59;2.50;;;0.80;;
77012;SDS011;65946;53.130;17.982;2023-01-16T02:03:29;2.10;;;0.80;;
77012;SDS011;65946;53.130;17.982;2023-01-16T02:06:04;2.00;;;0.70;;
77012;SDS011;65946;53.130;17.982;2023-01-16T02:11:03;2.80;;;0.90;;
77012;SDS011;65946;53.130;17.982;2023-01-16T02:13:36;3.30;;;0.80;;
77012;SDS011;65946;53.130;17.982;2023-01-16T02:16:05;3.80;;;1.20;;
77012;SDS011;65946;53.130;17.982;2023-01-16T02:18:50;5.20;;;1.20;;
77012;SDS011;65946;53.130;17.982;2023-01-16T02:36:19;1.80;;;0.80;;
77012;SDS011;65946;53.130;17.982;2023-01-16T02:44:41;3.40;;;0.80;;
77012;SDS011;65946;53.130;17.982;2023-01-16T02:52:40;2.80;;;1.00;;
77012;SDS011;65946;53.130;17.982;2023-01-16T02:55:26;3.80;;;1.00;;
77012;SDS011;65946;53.130;17.982;2023-01-16T02:57:59;2.60;;;1.20;;
77012;SDS011;65946;53.130;17.982;2023-01-16T03:00:28;4.50;;;1.20;;
77012;SDS011;65946;53.130;17.982;2023-01-16T03:02:55;4.30;;;1.60;;
77012;SDS011;65946;53.130;17.982;2023-01-16T03:05:22;4.20;;;1.30;;
77012;SDS011;65946;53.130;17.982;2023-01-16T03:16:09;4.50;;;1.40;;
77012;SDS011;65946;53.130;17.982;2023-01-16T03:21:50;2.10;;;0.80;;
77012;SDS011;65946;53.130;17.982;2023-01-16T03:27:07;4.40;;;1.50;;
77012;SDS011;65946;53.130;17.982;2023-01-16T03:29:48;2.60;;;1.00;;
77012;SDS011;65946;53.130;17.982;2023-01-16T03:35:22;8.60;;;3.00;;
77012;SDS011;65946;53.130;17.982;2023-01-16T03:37:55;3.70;;;1.50;;
77012;SDS011;65946;53.130;17.982;2023-01-16T03:40:26;3.40;;;1.10;;
77012;SDS011;65946;53.130;17.982;2023-01-16T03:48:29;3.00;;;1.10;;
77012;SDS011;65946;53.130;17.982;2023-01-16T03:51:06;5.60;;;1.80;;
77012;SDS011;65946;53.130;17.982;2023-01-16T03:53:41;4.70;;;1.70;;
77012;SDS011;65946;53.130;17.982;2023-01-16T03:56:13;4.70;;;1.30;;
77012;SDS011;65946;53.130;17.982;2023-01-16T03:58:53;3.80;;;1.40;;
77012;SDS011;65946;53.130;17.982;2023-01-16T04:01:33;4.40;;;1.80;;
77012;SDS011;65946;53.130;17.982;2023-01-16T04:04:09;5.40;;;1.90;;
77012;SDS011;65946;53.130;17.982;2023-01-16T04:06:58;3.20;;;1.20;;
77012;SDS011;65946;53.130;17.982;2023-01-16T04:12:04;3.70;;;1.20;;
77012;SDS011;65946;53.130;17.982;2023-01-16T04:14:33;2.90;;;1.30;;
77012;SDS011;65946;53.130;17.982;2023-01-16T04:17:02;2.60;;;1.00;;
77012;SDS011;65946;53.130;17.982;2023-01-16T04:19:30;5.90;;;1.50;;
77012;SDS011;65946;53.130;17.982;2023-01-16T04:21:59;5.70;;;1.20;;
77012;SDS011;65946;53.130;17.982;2023-01-16T04:24:31;3.50;;;1.20;;
77012;SDS011;65946;53.130;17.982;2023-01-16T04:26:59;4.20;;;1.20;;
77012;SDS011;65946;53.130;17.982;2023-01-16T04:29:27;2.70;;;1.20;;
77012;SDS011;65946;53.130;17.982;2023-01-16T04:31:53;2.60;;;1.10;;
77012;SDS011;65946;53.130;17.982;2023-01-16T04:34:20;3.10;;;1.20;;
77012;SDS011;65946;53.130;17.982;2023-01-16T04:36:47;2.40;;;0.90;;
77012;SDS011;65946;53.130;17.982;2023-01-16T04:39:13;4.60;;;1.70;;
77012;SDS011;65946;53.130;17.982;2023-01-16T04:41:40;5.30;;;1.50;;
77012;SDS011;65946;53.130;17.982;2023-01-16T04:44:07;4.80;;;1.50;;
77012;SDS011;65946;53.130;17.982;2023-01-16T04:46:35;3.50;;;1.00;;
77012;SDS011;65946;53.130;17.982;2023-01-16T04:49:04;5.60;;;1.70;;
77012;SDS011;65946;53.130;17.982;2023-01-16T04:51:32;16.00;;;4.20;;
77012;SDS011;65946;53.130;17.982;2023-01-16T04:54:00;21.80;;;7.10;;
77012;SDS011;65946;53.130;17.982;2023-01-16T04:56:28;6.50;;;2.30;;
77012;SDS011;65946;53.130;17.982;2023-01-16T04:58:54;6.10;;;1.70;;
77012;SDS011;65946;53.130;17.982;2023-01-16T05:01:21;10.90;;;2.90;;
77012;SDS011;65946;53.130;17.982;2023-01-16T05:03:49;4.90;;;1.50;;
77012;SDS011;65946;53.130;17.982;2023-01-16T05:06:16;7.70;;;1.90;;
77012;SDS011;65946;53.130;17.982;2023-01-16T05:08:42;5.50;;;2.00;;
77012;SDS011;65946;53.130;17.982;2023-01-16T05:13:36;6.30;;;2.10;;
77012;SDS011;65946;53.130;17.982;2023-01-16T05:16:02;6.20;;;2.40;;
77012;SDS011;65946;53.130;17.982;2023-01-16T05:18:29;8.30;;;2.70;;
77012;SDS011;65946;53.130;17.982;2023-01-16T05:20:56;7.40;;;2.10;;
77012;SDS011;65946;53.130;17.982;2023-01-16T05:23:23;7.40;;;2.30;;
77012;SDS011;65946;53.130;17.982;2023-01-16T05:25:49;8.10;;;2.80;;
77012;SDS011;65946;53.130;17.982;2023-01-16T05:28:16;8.50;;;2.50;;
77012;SDS011;65946;53.130;17.982;2023-01-16T05:30:43;8.10;;;2.50;;
77012;SDS011;65946;53.130;17.982;2023-01-16T05:33:09;11.20;;;3.50;;
77012;SDS011;65946;53.130;17.982;2023-01-16T05:35:36;8.90;;;2.90;;
77012;SDS011;65946;53.130;17.982;2023-01-16T05:38:03;9.40;;;3.30;;
77012;SDS011;65946;53.130;17.982;2023-01-16T05:40:30;4.90;;;1.90;;
77012;SDS011;65946;53.130;17.982;2023-01-16T05:42:57;6.90;;;2.20;;
77012;SDS011;65946;53.130;17.982;2023-01-16T05:45:23;6.30;;;2.00;;
77012;SDS011;65946;53.130;17.982;2023-01-16T05:47:50;6.60;;;2.30;;
77012;SDS011;65946;53.130;17.982;2023-01-16T05:50:17;9.20;;;3.50;;
77012;SDS011;65946;53.130;17.982;2023-01-16T05:52:43;6.20;;;2.20;;
77012;SDS011;65946;53.130;17.982;2023-01-16T05:55:10;4.90;;;1.70;;
77012;SDS011;65946;53.130;17.982;2023-01-16T05:57:37;6.60;;;2.00;;
77012;SDS011;65946;53.130;17.982;2023-01-16T06:00:04;4.10;;;1.60;;
77012;SDS011;65946;53.130;17.982;2023-01-16T06:02:32;6.10;;;1.40;;
77012;SDS011;65946;53.130;17.982;2023-01-16T06:04:59;6.50;;;3.00;;
77012;SDS011;65946;53.130;17.982;2023-01-16T06:09:53;6.30;;;2.00;;
77012;SDS011;65946;53.130;17.982;2023-01-16T06:12:19;3.90;;;1.80;;
77012;SDS011;65946;53.130;17.982;2023-01-16T06:14:46;4.50;;;1.50;;
77012;SDS011;65946;53.130;17.982;2023-01-16T06:17:13;4.10;;;1.60;;
77012;SDS011;65946;53.130;17.982;2023-01-16T06:19:41;8.00;;;2.70;;
77012;SDS011;65946;53.130;17.982;2023-01-16T06:22:08;8.00;;;2.70;;
77012;SDS011;65946;53.130;17.982;2023-01-16T06:24:35;13.90;;;4.30;;
77012;SDS011;65946;53.130;17.982;2023-01-16T06:27:01;19.40;;;5.40;;
77012;SDS011;65946;53.130;17.982;2023-01-16T06:29:28;13.10;;;3.90;;
77012;SDS011;65946;53.130;17.982;2023-01-16T06:31:55;24.90;;;7.20;;
77012;SDS011;65946;53.130;17.982;2023-01-16T06:36:49;14.10;;;4.70;;
77012;SDS011;65946;53.130;17.982;2023-01-16T06:39:15;12.90;;;4.40;;
77012;SDS011;65946;53.130;17.982;2023-01-16T06:41:42;8.60;;;2.70;;
77012;SDS011;65946;53.130;17.982;2023-01-16T06:44:09;5.70;;;2.20;;
77012;SDS011;65946;53.130;17.982;2023-01-16T06:46:36;8.40;;;2.90;;
77012;SDS011;65946;53.130;17.982;2023-01-16T06:49:03;8.70;;;2.30;;
77012;SDS011;65946;53.130;17.982;2023-01-16T06:51:29;9.40;;;2.80;;
77012;SDS011;65946;53.130;17.982;2023-01-16T06:53:56;8.10;;;3.00;;
77012;SDS011;65946;53.130;17.982;2023-01-16T06:56:23;6.50;;;2.40;;
77012;SDS011;65946;53.130;17.982;2023-01-16T06:58:50;7.40;;;2.70;;
77012;SDS011;65946;53.130;17.982;2023-01-16T07:01:17;7.40;;;2.20;;
77012;SDS011;65946;53.130;17.982;2023-01-16T07:03:44;6.20;;;2.10;;
77012;SDS011;65946;53.130;17.982;2023-01-16T07:06:11;8.40;;;3.40;;
77012;SDS011;65946;53.130;17.982;2023-01-16T07:08:39;7.70;;;2.60;;
77012;SDS011;65946;53.130;17.982;2023-01-16T07:13:32;5.50;;;2.00;;
77012;SDS011;65946;53.130;17.982;2023-01-16T07:15:59;4.80;;;2.00;;
77012;SDS011;65946;53.130;17.982;2023-01-16T07:18:44;7.10;;;2.10;;
77012;SDS011;65946;53.130;17.982;2023-01-16T07:21:29;5.50;;;2.20;;
77012;SDS011;65946;53.130;17.982;2023-01-16T07:24:18;7.40;;;2.70;;
77012;SDS011;65946;53.130;17.982;2023-01-16T07:26:54;11.50;;;4.10;;
77012;SDS011;65946;53.130;17.982;2023-01-16T07:29:26;8.40;;;3.70;;
77012;SDS011;65946;53.130;17.982;2023-01-16T07:31:56;8.70;;;3.10;;
77012;SDS011;65946;53.130;17.982;2023-01-16T07:34:25;7.90;;;3.20;;
77012;SDS011;65946;53.130;17.982;2023-01-16T07:36:52;13.00;;;4.50;;
77012;SDS011;65946;53.130;17.982;2023-01-16T07:41:46;14.70;;;3.50;;
77012;SDS011;65946;53.130;17.982;2023-01-16T07:44:14;15.00;;;4.90;;
77012;SDS011;65946;53.130;17.982;2023-01-16T07:46:41;11.90;;;4.20;;
77012;SDS011;65946;53.130;17.982;2023-01-16T07:49:08;21.30;;;5.50;;
77012;SDS011;65946;53.130;17.982;2023-01-16T07:51:35;11.80;;;3.60;;
77012;SDS011;65946;53.130;17.982;2023-01-16T07:54:01;12.80;;;3.70;;
77012;SDS011;65946;53.130;17.982;2023-01-16T07:56:28;17.90;;;4.60;;
77012;SDS011;65946;53.130;17.982;2023-01-16T07:58:55;13.20;;;5.30;;
77012;SDS011;65946;53.130;17.982;2023-01-16T08:01:21;7.70;;;2.90;;
77012;SDS011;65946;53.130;17.982;2023-01-16T08:03:48;10.90;;;3.30;;
77012;SDS011;65946;53.130;17.982;2023-01-16T08:06:15;7.90;;;2.30;;
77012;SDS011;65946;53.130;17.982;2023-01-16T08:08:41;9.40;;;2.70;;
77012;SDS011;65946;53.130;17.982;2023-01-16T08:11:08;7.80;;;2.30;;
77012;SDS011;65946;53.130;17.982;2023-01-16T08:13:53;7.20;;;2.20;;
77012;SDS011;65946;53.130;17.982;2023-01-16T08:16:20;9.40;;;3.00;;
77012;SDS011;65946;53.130;17.982;2023-01-16T08:18:46;7.00;;;3.10;;
77012;SDS011;65946;53.130;17.982;2023-01-16T08:21:15;11.40;;;4.30;;
77012;SDS011;65946;53.130;17.982;2023-01-16T08:23:43;12.70;;;3.90;;
77012;SDS011;65946;53.130;17.982;2023-01-16T08:26:10;9.30;;;3.50;;
77012;SDS011;65946;53.130;17.982;2023-01-16T08:28:37;8.20;;;3.70;;
77012;SDS011;65946;53.130;17.982;2023-01-16T08:31:09;9.20;;;2.90;;
77012;SDS011;65946;53.130;17.982;2023-01-16T08:33:40;7.70;;;3.20;;
77012;SDS011;65946;53.130;17.982;2023-01-16T08:36:09;7.40;;;3.00;;
77012;SDS011;65946;53.130;17.982;2023-01-16T08:38:37;7.70;;;3.00;;
77012;SDS011;65946;53.130;17.982;2023-01-16T08:41:04;8.80;;;3.50;;
77012;SDS011;65946;53.130;17.982;2023-01-16T08:46:21;11.40;;;4.00;;
77012;SDS011;65946;53.130;17.982;2023-01-16T08:49:09;12.60;;;5.30;;
77012;SDS011;65946;53.130;17.982;2023-01-16T08:51:57;10.50;;;4.10;;
77012;SDS011;65946;53.130;17.982;2023-01-16T08:54:24;12.00;;;5.10;;
77012;SDS011;65946;53.130;17.982;2023-01-16T08:56:52;9.10;;;4.60;;
77012;SDS011;65946;53.130;17.982;2023-01-16T08:59:18;11.10;;;4.60;;
77012;SDS011;65946;53.130;17.982;2023-01-16T09:01:45;9.80;;;4.50;;
77012;SDS011;65946;53.130;17.982;2023-01-16T09:04:11;9.80;;;4.80;;
77012;SDS011;65946;53.130;17.982;2023-01-16T09:09:05;5.50;;;2.60;;
77012;SDS011;65946;53.130;17.982;2023-01-16T09:11:33;10.80;;;4.40;;
77012;SDS011;65946;53.130;17.982;2023-01-16T09:14:19;12.50;;;6.10;;
77012;SDS011;65946;53.130;17.982;2023-01-16T09:16:46;9.90;;;4.80;;
77012;SDS011;65946;53.130;17.982;2023-01-16T09:19:13;13.40;;;6.40;;
77012;SDS011;65946;53.130;17.982;2023-01-16T09:21:39;9.00;;;3.90;;
77012;SDS011;65946;53.130;17.982;2023-01-16T09:24:06;12.10;;;5.20;;
77012;SDS011;65946;53.130;17.982;2023-01-16T09:26:33;12.60;;;5.00;;
77012;SDS011;65946;53.130;17.982;2023-01-16T09:29:00;15.20;;;5.90;;
77012;SDS011;65946;53.130;17.982;2023-01-16T09:33:53;10.70;;;4.10;;
77012;SDS011;65946;53.130;17.982;2023-01-16T09:36:21;15.70;;;6.20;;
77012;SDS011;65946;53.130;17.982;2023-01-16T09:38:48;14.50;;;6.40;;
77012;SDS011;65946;53.130;17.982;2023-01-16T09:44:01;12.50;;;5.20;;
77012;SDS011;65946;53.130;17.982;2023-01-16T09:46:35;16.80;;;7.00;;
77012;SDS011;65946;53.130;17.982;2023-01-16T09:51:47;16.00;;;6.40;;
77012;SDS011;65946;53.130;17.982;2023-01-16T09:54:39;32.20;;;13.90;;
77012;SDS011;65946;53.130;17.982;2023-01-16T09:57:29;55.70;;;21.90;;
77012;SDS011;65946;53.130;17.982;2023-01-16T10:00:18;67.70;;;28.40;;
77012;SDS011;65946;53.130;17.982;2023-01-16T10:02:47;21.40;;;10.70;;
77012;SDS011;65946;53.130;17.982;2023-01-16T10:05:14;22.40;;;11.40;;
77012;SDS011;65946;53.130;17.982;2023-01-16T10:10:55;68.20;;;27.70;;
77012;SDS011;65946;53.130;17.982;2023-01-16T10:13:36;51.00;;;21.80;;
77012;SDS011;65946;53.130;17.982;2023-01-16T10:18:45;59.20;;;16.30;;
77012;SDS011;65946;53.130;17.982;2023-01-16T10:24:14;37.80;;;18.30;;
77012;SDS011;65946;53.130;17.982;2023-01-16T10:30:18;15.40;;;6.50;;
77012;SDS011;65946;53.130;17.982;2023-01-16T10:32:52;36.80;;;10.90;;
77012;SDS011;65946;53.130;17.982;2023-01-16T10:35:39;16.50;;;6.10;;
77012;SDS011;65946;53.130;17.982;2023-01-16T10:38:17;10.80;;;3.50;;
77012;SDS011;65946;53.130;17.982;2023-01-16T10:41:35;9.00;;;4.80;;
77012;SDS011;65946;53.130;17.982;2023-01-16T10:47:26;10.70;;;4.20;;
77012;SDS011;65946;53.130;17.982;2023-01-16T10:50:15;8.90;;;3.30;;
77012;SDS011;65946;53.130;17.982;2023-01-16T10:52:43;7.30;;;2.90;;
77012;SDS011;65946;53.130;17.982;2023-01-16T10:55:12;6.70;;;2.90;;
77012;SDS011;65946;53.130;17.982;2023-01-16T10:57:48;7.80;;;3.40;;
77012;SDS011;65946;53.130;17.982;2023-01-16T11:00:26;9.40;;;3.80;;
77012;SDS011;65946;53.130;17.982;2023-01-16T11:03:49;8.00;;;4.00;;
77012;SDS011;65946;53.130;17.982;2023-01-16T11:08:42;12.10;;;4.80;;
77012;SDS011;65946;53.130;17.982;2023-01-16T11:11:11;8.80;;;3.90;;
77012;SDS011;65946;53.130;17.982;2023-01-16T11:13:58;9.30;;;4.20;;
77012;SDS011;65946;53.130;17.982;2023-01-16T11:16:45;10.90;;;4.30;;
77012;SDS011;65946;53.130;17.982;2023-01-16T11:19:39;8.30;;;3.90;;
77012;SDS011;65946;53.130;17.982;2023-01-16T11:22:24;10.60;;;4.10;;
77012;SDS011;65946;53.130;17.982;2023-01-16T11:24:57;9.00;;;3.80;;
77012;SDS011;65946;53.130;17.982;2023-01-16T11:27:26;8.80;;;4.30;;
77012;SDS011;65946;53.130;17.982;2023-01-16T11:32:24;9.50;;;4.10;;
77012;SDS011;65946;53.130;17.982;2023-01-16T11:34:55;8.90;;;3.70;;
77012;SDS011;65946;53.130;17.982;2023-01-16T11:37:24;8.90;;;4.10;;
77012;SDS011;65946;53.130;17.982;2023-01-16T11:39:54;10.90;;;4.80;;
77012;SDS011;65946;53.130;17.982;2023-01-16T11:42:24;13.70;;;5.20;;
77012;SDS011;65946;53.130;17.982;2023-01-16T11:45:14;10.50;;;5.00;;
77012;SDS011;65946;53.130;17.982;2023-01-16T11:48:04;13.90;;;5.90;;
77012;SDS011;65946;53.130;17.982;2023-01-16T11:50:53;11.80;;;5.50;;
77012;SDS011;65946;53.130;17.982;2023-01-16T11:53:22;12.30;;;5.30;;
77012;SDS011;65946;53.130;17.982;2023-01-16T11:55:55;12.80;;;5.50;;
77012;SDS011;65946;53.130;17.982;2023-01-16T11:58:35;13.40;;;5.10;;
77012;SDS011;65946;53.130;17.982;2023-01-16T12:04:29;11.40;;;4.80;;
77012;SDS011;65946;53.130;17.982;2023-01-16T12:09:53;9.30;;;4.20;;
77012;SDS011;65946;53.130;17.982;2023-01-16T12:12:30;10.40;;;4.20;;
77012;SDS011;65946;53.130;17.982;2023-01-16T12:15:25;11.10;;;4.70;;
77012;SDS011;65946;53.130;17.982;2023-01-16T12:18:26;8.60;;;4.00;;
77012;SDS011;65946;53.130;17.982;2023-01-16T12:21:12;9.20;;;3.50;;
77012;SDS011;65946;53.130;17.982;2023-01-16T12:29:38;11.90;;;5.20;;
77012;SDS011;65946;53.130;17.982;2023-01-16T12:35:04;9.10;;;3.70;;
77012;SDS011;65946;53.130;17.982;2023-01-16T12:37:49;7.10;;;3.60;;
77012;SDS011;65946;53.130;17.982;2023-01-16T12:46:03;27.90;;;13.00;;
77012;SDS011;65946;53.130;17.982;2023-01-16T12:48:55;13.00;;;6.50;;
77012;SDS011;65946;53.130;17.982;2023-01-16T13:02:28;22.20;;;10.00;;
77012;SDS011;65946;53.130;17.982;2023-01-16T13:05:16;15.60;;;6.80;;
77012;SDS011;65946;53.130;17.982;2023-01-16T13:07:50;20.50;;;8.90;;
77012;SDS011;65946;53.130;17.982;2023-01-16T13:10:23;14.40;;;5.50;;
77012;SDS011;65946;53.130;17.982;2023-01-16T13:13:15;15.70;;;9.00;;
77012;SDS011;65946;53.130;17.982;2023-01-16T13:15:50;12.10;;;6.30;;
77012;SDS011;65946;53.130;17.982;2023-01-16T13:18:38;10.30;;;4.90;;
77012;SDS011;65946;53.130;17.982;2023-01-16T13:21:10;13.40;;;5.90;;
77012;SDS011;65946;53.130;17.982;2023-01-16T13:23:48;12.00;;;4.50;;
77012;SDS011;65946;53.130;17.982;2023-01-16T13:28:55;67.20;;;31.40;;
77012;SDS011;65946;53.130;17.982;2023-01-16T13:34:03;29.30;;;14.70;;
77012;SDS011;65946;53.130;17.982;2023-01-16T13:42:15;30.80;;;12.90;;
77012;SDS011;65946;53.130;17.982;2023-01-16T13:44:45;16.00;;;8.60;;
77012;SDS011;65946;53.130;17.982;2023-01-16T13:47:37;13.10;;;7.20;;
77012;SDS011;65946;53.130;17.982;2023-01-16T13:52:49;13.20;;;6.30;;
77012;SDS011;65946;53.130;17.982;2023-01-16T13:55:27;14.00;;;7.80;;
77012;SDS011;65946;53.130;17.982;2023-01-16T13:58:05;18.40;;;10.60;;
77012;SDS011;65946;53.130;17.982;2023-01-16T14:00:34;23.70;;;13.50;;
77012;SDS011;65946;53.130;17.982;2023-01-16T14:05:46;45.20;;;24.50;;
77012;SDS011;65946;53.130;17.982;2023-01-16T14:11:35;29.70;;;16.50;;
77012;SDS011;65946;53.130;17.982;2023-01-16T14:17:05;21.30;;;9.40;;
77012;SDS011;65946;53.130;17.982;2023-01-16T14:19:36;16.40;;;8.60;;
77012;SDS011;65946;53.130;17.982;2023-01-16T14:24:45;15.30;;;7.40;;
77012;SDS011;65946;53.130;17.982;2023-01-16T14:27:15;19.10;;;7.70;;
77012;SDS011;65946;53.130;17.982;2023-01-16T14:29:52;14.50;;;7.60;;
77012;SDS011;65946;53.130;17.982;2023-01-16T14:32:27;9.70;;;5.50;;
77012;SDS011;65946;53.130;17.982;2023-01-16T14:35:17;13.30;;;6.20;;
77012;SDS011;65946;53.130;17.982;2023-01-16T14:38:06;10.50;;;4.90;;
77012;SDS011;65946;53.130;17.982;2023-01-16T14:40:55;22.30;;;9.80;;
77012;SDS011;65946;53.130;17.982;2023-01-16T14:47:44;35.30;;;17.00;;
77012;SDS011;65946;53.130;17.982;2023-01-16T15:01:37;21.00;;;9.20;;
77012;SDS011;65946;53.130;17.982;2023-01-16T15:04:26;20.70;;;8.70;;
77012;SDS011;65946;53.130;17.982;2023-01-16T15:07:03;17.20;;;8.50;;
77012;SDS011;65946;53.130;17.982;2023-01-16T15:09:33;14.70;;;6.10;;
77012;SDS011;65946;53.130;17.982;2023-01-16T15:12:10;16.80;;;7.00;;
77012;SDS011;65946;53.130;17.982;2023-01-16T15:14:38;19.70;;;7.80;;
77012;SDS011;65946;53.130;17.982;2023-01-16T15:23:18;21.80;;;8.30;;
77012;SDS011;65946;53.130;17.982;2023-01-16T15:25:54;24.70;;;8.90;;
77012;SDS011;65946;53.130;17.982;2023-01-16T15:28:39;29.60;;;10.20;;
77012;SDS011;65946;53.130;17.982;2023-01-16T15:31:32;27.10;;;10.80;;
77012;SDS011;65946;53.130;17.982;2023-01-16T15:34:05;30.70;;;10.60;;
77012;SDS011;65946;53.130;17.982;2023-01-16T15:36:46;26.60;;;10.20;;
77012;SDS011;65946;53.130;17.982;2023-01-16T15:39:30;41.90;;;13.00;;
77012;SDS011;65946;53.130;17.982;2023-01-16T15:42:13;20.70;;;8.20;;
77012;SDS011;65946;53.130;17.982;2023-01-16T15:48:28;31.20;;;10.40;;
77012;SDS011;65946;53.130;17.982;2023-01-16T15:51:20;27.50;;;9.80;;
77012;SDS011;65946;53.130;17.982;2023-01-16T15:53:48;23.70;;;9.30;;
77012;SDS011;65946;53.130;17.982;2023-01-16T15:58:48;25.90;;;9.50;;
77012;SDS011;65946;53.130;17.982;2023-01-16T16:01:28;19.60;;;8.40;;
77012;SDS011;65946;53.130;17.982;2023-01-16T16:06:24;26.70;;;10.00;;
77012;SDS011;65946;53.130;17.982;2023-01-16T16:08:55;27.70;;;12.10;;
77012;SDS011;65946;53.130;17.982;2023-01-16T16:11:25;30.20;;;14.80;;
77012;SDS011;65946;53.130;17.982;2023-01-16T16:14:20;21.40;;;11.60;;
77012;SDS011;65946;53.130;17.982;2023-01-16T16:17:22;26.10;;;15.20;;
77012;SDS011;65946;53.130;17.982;2023-01-16T16:23:00;18.40;;;8.90;;
77012;SDS011;65946;53.130;17.982;2023-01-16T16:28:28;19.40;;;8.30;;
77012;SDS011;65946;53.130;17.982;2023-01-16T16:33:31;18.70;;;8.80;;
77012;SDS011;65946;53.130;17.982;2023-01-16T16:36:02;20.70;;;8.40;;
77012;SDS011;65946;53.130;17.982;2023-01-16T16:38:40;19.00;;;7.50;;
77012;SDS011;65946;53.130;17.982;2023-01-16T16:43:50;19.80;;;9.30;;
77012;SDS011;65946;53.130;17.982;2023-01-16T16:51:36;25.60;;;11.60;;
77012;SDS011;65946;53.130;17.982;2023-01-16T16:54:08;30.60;;;13.00;;
77012;SDS011;65946;53.130;17.982;2023-01-16T16:56:42;25.70;;;12.30;;
77012;SDS011;65946;53.130;17.982;2023-01-16T16:59:16;21.60;;;10.00;;
77012;SDS011;65946;53.130;17.982;2023-01-16T17:01:50;33.90;;;16.00;;
77012;SDS011;65946;53.130;17.982;2023-01-16T17:04:20;26.70;;;11.60;;
77012;SDS011;65946;53.130;17.982;2023-01-16T17:06:47;23.70;;;10.10;;
77012;SDS011;65946;53.130;17.982;2023-01-16T17:09:17;19.10;;;8.70;;
77012;SDS011;65946;53.130;17.982;2023-01-16T17:11:44;20.30;;;9.60;;
77012;SDS011;65946;53.130;17.982;2023-01-16T17:14:12;19.70;;;8.20;;
77012;SDS011;65946;53.130;17.982;2023-01-16T17:16:39;21.70;;;8.90;;
77012;SDS011;65946;53.130;17.982;2023-01-16T17:21:48;20.30;;;8.60;;
77012;SDS011;65946;53.130;17.982;2023-01-16T17:24:16;21.90;;;9.40;;
77012;SDS011;65946;53.130;17.982;2023-01-16T17:26:44;18.10;;;7.90;;
77012;SDS011;65946;53.130;17.982;2023-01-16T17:29:11;23.00;;;9.00;;
77012;SDS011;65946;53.130;17.982;2023-01-16T17:31:38;26.50;;;12.70;;
77012;SDS011;65946;53.130;17.982;2023-01-16T17:34:10;24.30;;;11.10;;
77012;SDS011;65946;53.130;17.982;2023-01-16T17:36:40;21.90;;;8.20;;
77012;SDS011;65946;53.130;17.982;2023-01-16T17:39:07;19.80;;;8.60;;
77012;SDS011;65946;53.130;17.982;2023-01-16T17:41:35;23.40;;;9.00;;
77012;SDS011;65946;53.130;17.982;2023-01-16T17:44:24;24.50;;;10.00;;
77012;SDS011;65946;53.130;17.982;2023-01-16T17:47:14;22.90;;;9.80;;
77012;SDS011;65946;53.130;17.982;2023-01-16T17:49:41;19.40;;;9.50;;
77012;SDS011;65946;53.130;17.982;2023-01-16T17:52:26;20.80;;;9.70;;
77012;SDS011;65946;53.130;17.982;2023-01-16T17:54:52;23.70;;;9.20;;
77012;SDS011;65946;53.130;17.982;2023-01-16T17:57:37;21.50;;;9.90;;
77012;SDS011;65946;53.130;17.982;2023-01-16T18:00:04;22.30;;;10.60;;
77012;SDS011;65946;53.130;17.982;2023-01-16T18:02:32;22.50;;;9.40;;
77012;SDS011;65946;53.130;17.982;2023-01-16T18:04:59;30.80;;;11.80;;
77012;SDS011;65946;53.130;17.982;2023-01-16T18:07:26;22.70;;;9.50;;
77012;SDS011;65946;53.130;17.982;2023-01-16T18:09:53;24.10;;;9.80;;
77012;SDS011;65946;53.130;17.982;2023-01-16T18:15:05;21.70;;;9.60;;
77012;SDS011;65946;53.130;17.982;2023-01-16T18:17:50;20.70;;;10.00;;
77012;SDS011;65946;53.130;17.982;2023-01-16T18:20:17;25.30;;;11.60;;
77012;SDS011;65946;53.130;17.982;2023-01-16T18:22:44;22.70;;;11.70;;
77012;SDS011;65946;53.130;17.982;2023-01-16T18:25:11;24.80;;;11.80;;
77012;SDS011;65946;53.130;17.982;2023-01-16T18:27:38;25.70;;;12.60;;
77012;SDS011;65946;53.130;17.982;2023-01-16T18:30:05;32.70;;;14.40;;
77012;SDS011;65946;53.130;17.982;2023-01-16T18:32:32;25.10;;;12.50;;
77012;SDS011;65946;53.130;17.982;2023-01-16T18:35:00;34.50;;;15.30;;
77012;SDS011;65946;53.130;17.982;2023-01-16T18:40:02;23.70;;;12.70;;
77012;SDS011;65946;53.130;17.982;2023-01-16T18:42:49;25.00;;;12.70;;
77012;SDS011;65946;53.130;17.982;2023-01-16T18:45:34;26.20;;;11.90;;